Air Navigation Services of Czech Republic
Airport: LKLN Updated:  13.11.2018 19:31:07  UTC
 METAR LKLN 13.11. 19:30 ...
METAR LKLN 131930Z AUTO 21004KT 150V260 CAVOK 07/06 Q1030=